KBTR/BTR METAR and TAF weather

Enter ICAO airport designator
Station Type Date Time Source
KBTR METAR 2020/07/11 19:53 UTC NOAA

KBTR 111953Z 10SM CLR 35/25 A2996 RMK AO2 SLP145 T03500250


Station Type Date Time Source
KBTR Decoded METAR 2020/07/11 19:53 UTC NOAA

BATON ROUGE METRO RYAN FIELD, LA, United States (KBTR) 30-32N 91-09W 21M
Jul 11, 2020 - 03:53 PM EDT / 2020.07.11 1953 UTC
Visibility: 10 mile(s):0
Sky conditions: clear
Temperature: 95.0 F (35.0 C)
Heat index: 109.8 F (43.2 C):1
Dew Point: 77.0 F (25.0 C)
Relative Humidity: 56%
Pressure (altimeter): 29.96 in. Hg (1014 hPa)
ob: KBTR 111953Z 10SM CLR 35/25 A2996 RMK AO2 SLP145 T03500250
cycle: 20

Station Type Date Time Source
KBTR TAF 2020/07/11 18:42 UTC NOAA

TAF KBTR 111739Z 1118/1218 31006KT P6SM SCT035
FM120200 VRB03KT P6SM FEW250
FM121300 VRB04KT P6SM FEW025 FEW250
FM121700 29006KT P6SM FEW035 SCT150

Example: see airport list